Juergen K — PBKV — position and weather

sailwx.info

Track history (hours):
 
Tides and Currents Weather Stations Pressure Air Temp Water Temp Dewpoint Dewpoint Depression Visibility Wind Speed Wind Dir Waves Ship Positions

Juergen K

Last reported at 2015-May-24 00:26 UTC. Time now 2015-May-25 23:31 UTC.
Position N 36°30' W 002°50'.

Length 89 m; draft 5.4 m.

Type: Cargo ship. MMSI: 244329000.

Date/timePositionNaut miles runAvg speedWind from/ knotsBaromVisibWave heightAir tempDewpointWater temp
2015-May-24 00:26N 36°30' W 002°50'9 9.9
2015-May-23 23:33N 36°29' W 002°39'95 9.1
2015-May-23 13:09N 37°17' W 000°58'6 9.7
2015-May-23 12:33N 37°21' W 000°52'12 9.9
2015-May-23 11:18N 37°29' W 000°41'7 9.9
2015-May-23 10:33N 37°34' W 000°34'10 9.8
2015-May-23 09:33N 37°42' W 000°27'10 9.4
2015-May-23 08:31N 37°50' W 000°20'9 9.3
2015-May-23 07:33N 37°58' W 000°14'  
2015-May-20 00:21N 37°50' W 000°17'6 6.2
2015-May-19 23:28N 37°45' W 000°21'6 6.3
2015-May-19 22:33N 37°40' W 000°25'7 7.3
2015-May-19 21:33N 37°34' W 000°30'9 7.8
2015-May-19 20:22N 37°28' W 000°39'7 8.8
2015-May-19 19:33N 37°23' W 000°45'9 9.4
2015-May-19 18:33N 37°17' W 000°54'10 9.8
2015-May-19 17:32N 37°10' W 001°03'42 9.7
2015-May-19 13:11N 36°42' W 001°43'6 9.2
2015-May-19 12:33N 36°38' W 001°48'10 9.0
2015-May-19 11:29N 36°32' W 001°57'17 8.6
2015-May-19 09:33N 36°22' W 002°14'20 8.9
2015-May-19 07:21N 36°18' W 002°38'18 9.2
2015-May-19 05:23N 36°16' W 003°00'114 9.6
2015-May-18 17:33N 35°59' W 005°19'199 8.3
2015-May-17 17:26N 36°39' W 009°22'43 8.7
2015-May-17 12:30N 37°18' W 009°42'9 9.5
2015-May-17 11:33N 37°27' W 009°45'10 9.7
2015-May-17 10:33N 37°37' W 009°47'10 9.8
2015-May-17 09:33N 37°46' W 009°50'10 9.6
2015-May-17 08:33N 37°55' W 009°53'10 9.5
2015-May-17 07:33N 38°05' W 009°55'9 9.4
2015-May-17 06:32N 38°14' W 009°58'9 9.3
2015-May-17 05:33N 38°23' W 010°00'9 9.4
2015-May-17 04:33N 38°32' W 010°03'9 9.1
2015-May-17 03:33N 38°41' W 010°06'9 8.9
2015-May-17 02:33N 38°50' W 010°06'9 8.9
2015-May-17 01:33N 38°58' W 010°02'9 8.7
2015-May-17 00:30N 39°07' W 009°58'  
2015-May-14 02:25N 39°11' W 009°47'1010.0
2015-May-14 01:22N 39°01' W 009°49'910.2
2015-May-14 00:31N 38°52' W 009°50'  
Track history (hours):
 
Tides and Currents Weather Stations Pressure Air Temp Water Temp Dewpoint Dewpoint Depression Visibility Wind Speed Wind Dir Waves Ship Positions

Juergen K

Last reported at 2015-May-24 00:26 UTC. Time now 2015-May-25 23:31 UTC.
Position N 36°30' W 002°50'.

Length 89 m; draft 5.4 m.

Type: Cargo ship. MMSI: 244329000.

Date/timePositionNaut miles runAvg speedWind from/ knotsBaromVisibWave heightAir tempDewpointWater temp
2015-May-24 00:26N 36°30' W 002°50'9 9.9
2015-May-23 23:33N 36°29' W 002°39'95 9.1
2015-May-23 13:09N 37°17' W 000°58'6 9.7
2015-May-23 12:33N 37°21' W 000°52'12 9.9
2015-May-23 11:18N 37°29' W 000°41'7 9.9
2015-May-23 10:33N 37°34' W 000°34'10 9.8
2015-May-23 09:33N 37°42' W 000°27'10 9.4
2015-May-23 08:31N 37°50' W 000°20'9 9.3
2015-May-23 07:33N 37°58' W 000°14'  
2015-May-20 00:21N 37°50' W 000°17'6 6.2
2015-May-19 23:28N 37°45' W 000°21'6 6.3
2015-May-19 22:33N 37°40' W 000°25'7 7.3
2015-May-19 21:33N 37°34' W 000°30'9 7.8
2015-May-19 20:22N 37°28' W 000°39'7 8.8
2015-May-19 19:33N 37°23' W 000°45'9 9.4
2015-May-19 18:33N 37°17' W 000°54'10 9.8
2015-May-19 17:32N 37°10' W 001°03'42 9.7
2015-May-19 13:11N 36°42' W 001°43'6 9.2
2015-May-19 12:33N 36°38' W 001°48'10 9.0
2015-May-19 11:29N 36°32' W 001°57'17 8.6
2015-May-19 09:33N 36°22' W 002°14'20 8.9
2015-May-19 07:21N 36°18' W 002°38'18 9.2
2015-May-19 05:23N 36°16' W 003°00'114 9.6
2015-May-18 17:33N 35°59' W 005°19'199 8.3
2015-May-17 17:26N 36°39' W 009°22'43 8.7
2015-May-17 12:30N 37°18' W 009°42'9 9.5
2015-May-17 11:33N 37°27' W 009°45'10 9.7
2015-May-17 10:33N 37°37' W 009°47'10 9.8
2015-May-17 09:33N 37°46' W 009°50'10 9.6
2015-May-17 08:33N 37°55' W 009°53'10 9.5
2015-May-17 07:33N 38°05' W 009°55'9 9.4
2015-May-17 06:32N 38°14' W 009°58'9 9.3
2015-May-17 05:33N 38°23' W 010°00'9 9.4
2015-May-17 04:33N 38°32' W 010°03'9 9.1
2015-May-17 03:33N 38°41' W 010°06'9 8.9
2015-May-17 02:33N 38°50' W 010°06'9 8.9
2015-May-17 01:33N 38°58' W 010°02'9 8.7
2015-May-17 00:30N 39°07' W 009°58'  
2015-May-14 02:25N 39°11' W 009°47'1010.0
2015-May-14 01:22N 39°01' W 009°49'910.2
2015-May-14 00:31N 38°52' W 009°50'  

Dump ship's entire track history